createdAt,value
2018-04-29T00:02:05.500Z,61.50
2018-04-29T00:04:34.501Z,62.20
2018-04-29T00:07:03.519Z,61.80
2018-04-29T00:09:31.754Z,61.80
2018-04-29T00:12:00.773Z,61.40
2018-04-29T00:14:29.014Z,61.40
2018-04-29T00:16:58.778Z,61.90
2018-04-29T00:19:27.009Z,61.90
2018-04-29T00:21:57.022Z,62.20
2018-04-29T00:24:26.773Z,62.20
2018-04-29T00:26:55.018Z,62.10
2018-04-29T00:29:24.283Z,62.90
2018-04-29T00:31:52.518Z,62.70
2018-04-29T00:34:20.754Z,63.00
2018-04-29T00:36:49.006Z,62.90
2018-04-29T00:39:17.330Z,63.30
2018-04-29T00:41:45.582Z,63.20
2018-04-29T00:44:15.330Z,62.80
2018-04-29T00:46:43.579Z,62.80
2018-04-29T00:49:12.577Z,63.20
2018-04-29T00:51:59.481Z,63.60
2018-04-29T00:54:28.489Z,63.80
2018-04-29T00:56:57.500Z,63.60
2018-04-29T00:59:25.761Z,63.50
2018-04-29T01:01:54.762Z,63.30
2018-04-29T01:04:23.778Z,63.30
2018-04-29T01:06:52.040Z,63.30
2018-04-29T01:09:20.282Z,63.30
2018-04-29T01:11:49.301Z,63.50
2018-04-29T01:14:17.561Z,63.40
2018-04-29T01:16:46.558Z,64.00
2018-04-29T01:19:15.865Z,64.10
2018-04-29T01:21:44.885Z,64.40
2018-04-29T01:24:13.133Z,64.40
2018-04-29T01:26:42.139Z,64.80
2018-04-29T01:29:10.602Z,64.60
2018-04-29T01:31:39.607Z,64.70
2018-04-29T01:34:07.838Z,64.50
2018-04-29T01:36:36.260Z,64.70
2018-04-29T01:39:05.277Z,64.50
2018-04-29T01:41:33.519Z,64.30
2018-04-29T01:44:02.534Z,64.40
2018-04-29T01:46:30.761Z,64.20
2018-04-29T01:48:59.778Z,64.20
2018-04-29T01:51:28.791Z,64.40
2018-04-29T01:53:57.030Z,64.30
2018-04-29T01:56:26.786Z,64.40
2018-04-29T01:58:55.018Z,64.40
2018-04-29T02:01:23.259Z,64.10
2018-04-29T02:03:51.506Z,64.10
2018-04-29T02:06:19.749Z,64.00
2018-04-29T02:08:48.762Z,63.40
2018-04-29T02:11:17.756Z,62.10
2018-04-29T02:13:45.994Z,62.00
2018-04-29T02:16:14.242Z,61.60
2018-04-29T02:18:42.486Z,61.20
2018-04-29T02:21:11.559Z,61.20
2018-04-29T02:23:40.577Z,61.30
2018-04-29T02:26:09.719Z,62.00
2018-04-29T02:28:37.985Z,61.90
2018-04-29T02:31:06.250Z,61.90
2018-04-29T02:33:34.505Z,62.20
2018-04-29T02:36:02.788Z,62.10
2018-04-29T02:38:31.017Z,62.00
2018-04-29T02:41:00.799Z,62.70
2018-04-29T02:43:30.046Z,62.60
2018-04-29T02:45:59.088Z,62.70
2018-04-29T02:48:27.375Z,62.70
2018-04-29T02:50:55.619Z,62.50
2018-04-29T02:53:23.869Z,63.00
2018-04-29T02:55:52.382Z,62.90
2018-04-29T02:58:20.673Z,63.10
2018-04-29T03:00:48.943Z,63.50
2018-04-29T03:03:17.237Z,63.30
2018-04-29T03:05:45.485Z,63.40
2018-04-29T03:08:13.742Z,63.80
2018-04-29T03:10:42.014Z,64.10
2018-04-29T03:13:10.246Z,64.00
2018-04-29T03:15:39.266Z,65.20
2018-04-29T03:18:08.309Z,64.60
2018-04-29T03:20:36.577Z,64.50
2018-04-29T03:23:04.818Z,64.80
2018-04-29T03:25:34.097Z,64.90
2018-04-29T03:28:03.146Z,65.00
2018-04-29T03:30:31.438Z,65.00
2018-04-29T03:32:59.719Z,65.20
2018-04-29T03:35:27.963Z,65.40
2018-04-29T03:37:56.217Z,65.30
2018-04-29T03:40:25.236Z,65.30
2018-04-29T03:42:53.468Z,65.10
2018-04-29T03:45:21.693Z,65.60
2018-04-29T03:47:49.943Z,65.90
2018-04-29T03:50:18.952Z,66.00
2018-04-29T03:52:47.191Z,66.00
2018-04-29T03:55:15.437Z,65.80
2018-04-29T03:58:01.400Z,65.70
2018-04-29T04:01:02.494Z,66.10
2018-04-29T04:03:44.427Z,66.30
2018-04-29T04:06:12.925Z,66.00
2018-04-29T04:08:41.176Z,66.00
2018-04-29T04:11:10.171Z,66.10
2018-04-29T04:13:39.189Z,66.10
2018-04-29T04:16:08.118Z,66.90
2018-04-29T04:18:36.378Z,66.10
2018-04-29T04:21:04.607Z,66.10
2018-04-29T04:23:33.616Z,65.80
2018-04-29T04:26:01.873Z,65.80
2018-04-29T04:28:30.110Z,66.20
2018-04-29T04:30:58.343Z,66.30
2018-04-29T04:33:26.584Z,67.30
2018-04-29T04:35:55.585Z,66.40
2018-04-29T04:38:24.610Z,66.10
2018-04-29T04:40:52.846Z,66.10
2018-04-29T04:43:21.838Z,66.60
2018-04-29T04:45:50.858Z,66.10
2018-04-29T04:48:19.094Z,66.00
2018-04-29T04:50:48.102Z,65.40
2018-04-29T04:53:17.109Z,65.90
2018-04-29T04:55:46.280Z,65.70
2018-04-29T04:58:15.291Z,65.50
2018-04-29T05:00:45.006Z,65.40
2018-04-29T05:03:14.102Z,65.40
2018-04-29T05:05:43.105Z,65.40
2018-04-29T05:08:11.349Z,65.20
2018-04-29T05:10:40.978Z,66.30
2018-04-29T05:13:09.210Z,65.40
2018-04-29T05:15:37.466Z,65.90
2018-04-29T05:18:05.698Z,65.70
2018-04-29T05:20:34.701Z,65.90
2018-04-29T05:23:02.946Z,65.90
2018-04-29T05:25:31.186Z,66.20
2018-04-29T05:27:59.428Z,66.30
2018-04-29T05:30:27.751Z,66.30
2018-04-29T05:32:55.996Z,66.30
2018-04-29T05:35:24.299Z,66.30
2018-04-29T05:37:52.519Z,67.10
2018-04-29T05:40:21.523Z,65.70
2018-04-29T05:42:49.847Z,65.60
2018-04-29T05:45:18.127Z,65.70
2018-04-29T05:47:46.398Z,67.10
2018-04-29T05:50:14.875Z,66.50
2018-04-29T05:52:43.107Z,65.50
2018-04-29T05:55:12.111Z,64.90
2018-04-29T05:57:40.366Z,64.80
2018-04-29T06:00:09.674Z,64.80
2018-04-29T06:02:38.669Z,64.40
2018-04-29T06:05:06.948Z,64.30
2018-04-29T06:07:35.194Z,64.40
2018-04-29T06:10:03.458Z,64.00
2018-04-29T06:12:32.501Z,64.90
2018-04-29T06:15:00.759Z,64.50
2018-04-29T06:17:29.779Z,64.80
2018-04-29T06:19:58.038Z,64.80
2018-04-29T06:22:27.138Z,64.70
2018-04-29T06:24:55.378Z,64.70
2018-04-29T06:27:23.614Z,64.20
2018-04-29T06:29:51.869Z,63.60
2018-04-29T06:32:20.153Z,63.60
2018-04-29T06:34:48.586Z,63.80
2018-04-29T06:37:18.381Z,63.70
2018-04-29T06:39:47.413Z,62.60
2018-04-29T06:42:15.681Z,62.70
2018-04-29T06:44:45.424Z,62.70
2018-04-29T06:47:13.726Z,62.70
2018-04-29T06:49:42.154Z,62.40
2018-04-29T06:52:11.159Z,61.80
2018-04-29T06:54:39.405Z,61.80
2018-04-29T06:57:07.686Z,63.30
2018-04-29T06:59:36.695Z,62.10
2018-04-29T07:02:05.705Z,61.70
2018-04-29T07:04:33.977Z,61.60
2018-04-29T07:07:02.241Z,61.00
2018-04-29T07:09:31.251Z,60.30
2018-04-29T07:11:59.547Z,60.20
2018-04-29T07:14:27.798Z,60.40
2018-04-29T07:16:56.043Z,60.00
2018-04-29T07:19:25.046Z,60.20
2018-04-29T07:21:54.084Z,59.50
2018-04-29T07:24:22.385Z,59.40
2018-04-29T07:26:50.617Z,59.80
2018-04-29T07:29:18.926Z,59.20
2018-04-29T07:31:47.164Z,59.90
2018-04-29T07:34:15.690Z,59.80
2018-04-29T07:36:43.940Z,59.20
2018-04-29T07:39:12.176Z,58.20
2018-04-29T07:41:41.232Z,58.00
2018-04-29T07:44:09.529Z,57.90
2018-04-29T07:46:38.817Z,56.40
2018-04-29T07:49:07.835Z,56.70
2018-04-29T07:51:36.848Z,57.70
2018-04-29T07:54:05.150Z,57.60
2018-04-29T07:56:33.392Z,55.60
2018-04-29T07:59:02.446Z,56.20
2018-04-29T08:01:30.733Z,56.10
2018-04-29T08:03:59.745Z,55.70
2018-04-29T08:06:27.991Z,55.60
2018-04-29T08:08:56.268Z,55.50
2018-04-29T08:11:24.495Z,56.80
2018-04-29T08:13:52.754Z,55.90
2018-04-29T08:16:21.791Z,55.10
2018-04-29T08:18:50.041Z,55.00
2018-04-29T08:21:18.315Z,54.40
2018-04-29T08:23:46.811Z,54.70
2018-04-29T08:26:15.054Z,55.00
2018-04-29T08:28:44.095Z,54.60
2018-04-29T08:31:12.347Z,54.50
2018-04-29T08:33:40.590Z,54.20
2018-04-29T08:36:09.686Z,54.60
2018-04-29T08:38:39.430Z,52.90
2018-04-29T08:41:07.684Z,52.90
2018-04-29T08:43:36.711Z,54.20
2018-04-29T08:46:05.205Z,54.20
2018-04-29T08:48:33.459Z,53.40
2018-04-29T08:51:01.693Z,52.80
2018-04-29T08:53:31.469Z,52.20
2018-04-29T08:55:59.766Z,52.10
2018-04-29T08:58:27.963Z,50.10
2018-04-29T09:00:56.961Z,51.40
2018-04-29T09:03:25.977Z,49.30
2018-04-29T09:05:54.229Z,49.20
2018-04-29T09:08:23.489Z,51.50
2018-04-29T09:10:51.717Z,51.40
2018-04-29T09:13:20.002Z,51.00
2018-04-29T09:15:48.259Z,50.80
2018-04-29T09:18:16.531Z,51.20
2018-04-29T09:20:45.542Z,46.70
2018-04-29T09:23:13.795Z,47.20
2018-04-29T09:25:42.809Z,48.40
2018-04-29T09:28:11.321Z,48.40
2018-04-29T09:30:39.554Z,48.30
2018-04-29T09:33:08.554Z,49.50
2018-04-29T09:35:36.870Z,49.50
2018-04-29T09:38:05.118Z,49.00
2018-04-29T09:40:33.354Z,47.60
2018-04-29T09:43:02.428Z,48.80
2018-04-29T09:45:30.700Z,48.80
2018-04-29T09:47:58.930Z,48.70
2018-04-29T09:50:27.986Z,45.90
2018-04-29T09:52:57.763Z,45.70
2018-04-29T09:55:26.042Z,45.60
2018-04-29T09:57:55.006Z,47.50
2018-04-29T10:00:27.222Z,47.40
2018-04-29T10:03:01.169Z,46.00
2018-04-29T10:05:30.271Z,47.00
2018-04-29T10:07:59.282Z,45.90
2018-04-29T10:10:27.514Z,45.90
2018-04-29T10:12:57.273Z,43.60
2018-04-29T10:15:25.559Z,43.50
2018-04-29T10:17:53.802Z,43.40
2018-04-29T10:20:22.813Z,43.10
2018-04-29T10:22:51.083Z,43.00
2018-04-29T10:25:19.654Z,42.10
2018-04-29T10:27:47.950Z,43.40
2018-04-29T10:30:16.198Z,43.80
2018-04-29T10:32:45.295Z,43.20
2018-04-29T10:35:13.474Z,43.10
2018-04-29T10:37:42.496Z,44.80
2018-04-29T10:40:10.761Z,44.70
2018-04-29T10:42:39.044Z,44.10
2018-04-29T10:45:07.556Z,44.20
2018-04-29T10:47:35.823Z,45.70
2018-04-29T10:50:04.115Z,46.20
2018-04-29T10:52:32.446Z,45.40
2018-04-29T10:55:01.430Z,44.10
2018-04-29T10:57:29.715Z,44.10
2018-04-29T10:59:58.742Z,43.40
2018-04-29T11:02:26.982Z,43.40
2018-04-29T11:04:56.047Z,44.60
2018-04-29T11:07:24.310Z,44.50
2018-04-29T11:09:52.566Z,43.10
2018-04-29T11:12:20.819Z,44.80
2018-04-29T11:14:49.074Z,42.70
2018-04-29T11:17:17.371Z,41.60
2018-04-29T11:19:45.642Z,43.40
2018-04-29T11:22:13.919Z,42.80
2018-04-29T11:24:42.123Z,42.20
2018-04-29T11:27:12.051Z,41.00
2018-04-29T11:29:40.289Z,41.00
2018-04-29T11:32:08.591Z,40.70
2018-04-29T11:34:36.842Z,38.70
2018-04-29T11:37:05.140Z,42.20
2018-04-29T11:39:33.394Z,39.80
2018-04-29T11:42:01.650Z,39.50
2018-04-29T11:44:29.937Z,39.80
2018-04-29T11:46:58.235Z,39.10
2018-04-29T11:49:26.472Z,38.40
2018-04-29T11:51:55.475Z,38.20
2018-04-29T11:54:24.154Z,38.20
2018-04-29T11:56:52.433Z,39.40
2018-04-29T11:59:20.726Z,39.90
2018-04-29T12:01:49.311Z,38.90
2018-04-29T12:04:17.472Z,38.10
2018-04-29T12:06:45.726Z,39.60
2018-04-29T12:09:14.790Z,37.30
2018-04-29T12:11:43.050Z,37.30
2018-04-29T12:14:11.280Z,35.90
2018-04-29T12:16:40.335Z,35.60
2018-04-29T12:19:10.097Z,36.30
2018-04-29T12:21:38.358Z,36.30
2018-04-29T12:24:06.656Z,35.90
2018-04-29T12:26:34.971Z,36.70
2018-04-29T12:29:04.020Z,37.00
2018-04-29T12:31:32.308Z,37.00
2018-04-29T12:34:00.574Z,35.90
2018-04-29T12:36:28.854Z,33.70
2018-04-29T12:38:57.096Z,35.80
2018-04-29T12:41:26.117Z,36.00
2018-04-29T12:43:54.405Z,35.90
2018-04-29T12:46:22.640Z,35.00
2018-04-29T12:48:51.651Z,34.30
2018-04-29T12:51:20.210Z,34.20
2018-04-29T12:53:48.431Z,33.70
2018-04-29T12:56:16.669Z,33.20
2018-04-29T12:58:45.715Z,34.30
2018-04-29T13:01:14.735Z,33.60
2018-04-29T13:03:43.733Z,34.10
2018-04-29T13:06:13.489Z,34.80
2018-04-29T13:08:41.774Z,34.70
2018-04-29T13:11:10.067Z,35.60
2018-04-29T13:13:38.560Z,34.60
2018-04-29T13:16:06.808Z,33.30
2018-04-29T13:18:35.045Z,32.50
2018-04-29T13:21:04.150Z,32.40
2018-04-29T13:23:33.211Z,30.60
2018-04-29T13:26:02.259Z,32.00
2018-04-29T13:28:30.509Z,32.00
2018-04-29T13:30:59.567Z,32.80
2018-04-29T13:33:27.809Z,32.80
2018-04-29T13:35:56.110Z,30.70
2018-04-29T13:38:24.337Z,32.50
2018-04-29T13:40:52.598Z,33.70
2018-04-29T13:43:20.883Z,31.10
2018-04-29T13:45:49.881Z,32.80
2018-04-29T13:48:18.118Z,32.60
2018-04-29T13:50:47.146Z,32.90
2018-04-29T13:53:16.145Z,32.70
2018-04-29T13:55:44.394Z,32.60
2018-04-29T13:58:13.670Z,32.50
2018-04-29T14:00:41.898Z,32.10
2018-04-29T14:03:10.147Z,34.20
2018-04-29T14:05:38.393Z,32.70
2018-04-29T14:08:07.418Z,34.30
2018-04-29T14:10:36.448Z,35.00
2018-04-29T14:13:05.449Z,32.80
2018-04-29T14:15:33.685Z,32.70
2018-04-29T14:18:02.707Z,34.30
2018-04-29T14:20:30.941Z,34.20
2018-04-29T14:22:59.174Z,35.00
2018-04-29T14:25:27.422Z,34.60
2018-04-29T14:27:55.659Z,33.80
2018-04-29T14:30:24.686Z,34.00
2018-04-29T14:32:52.930Z,34.00
2018-04-29T14:35:21.163Z,32.70
2018-04-29T14:37:49.425Z,34.60
2018-04-29T14:40:17.670Z,35.00
2018-04-29T14:42:46.678Z,33.70
2018-04-29T14:45:15.690Z,34.10
2018-04-29T14:47:43.977Z,34.10
2018-04-29T14:50:12.209Z,34.60
2018-04-29T14:52:41.221Z,33.50
2018-04-29T14:55:09.520Z,33.50
2018-04-29T14:57:37.763Z,35.30
2018-04-29T15:00:06.774Z,34.00
2018-04-29T15:02:35.018Z,33.90
2018-04-29T15:05:04.034Z,34.30
2018-04-29T15:07:32.294Z,34.20
2018-04-29T15:10:01.306Z,34.80
2018-04-29T15:12:29.558Z,34.70
2018-04-29T15:14:58.561Z,35.30
2018-04-29T15:17:27.584Z,35.40
2018-04-29T15:19:55.849Z,35.40
2018-04-29T15:22:24.117Z,35.80
2018-04-29T15:24:52.388Z,34.80
2018-04-29T15:27:21.398Z,35.10
2018-04-29T15:29:49.649Z,35.00
2018-04-29T15:32:18.658Z,34.90
2018-04-29T15:34:47.925Z,35.80
2018-04-29T15:37:16.161Z,35.80
2018-04-29T15:39:44.428Z,35.70
2018-04-29T15:42:12.686Z,35.70
2018-04-29T15:44:40.962Z,35.90
2018-04-29T15:47:09.210Z,35.90
2018-04-29T15:49:38.231Z,37.30
2018-04-29T15:52:06.474Z,37.30
2018-04-29T15:54:35.474Z,37.40
2018-04-29T15:57:04.512Z,32.50
2018-04-29T15:59:32.825Z,31.90
2018-04-29T16:02:01.761Z,29.90
2018-04-29T16:04:30.165Z,29.90
2018-04-29T16:06:58.409Z,29.20
2018-04-29T16:09:27.411Z,28.90
2018-04-29T16:11:55.657Z,28.90
2018-04-29T16:14:24.678Z,29.10
2018-04-29T16:16:52.918Z,29.00
2018-04-29T16:19:21.983Z,28.90
2018-04-29T16:21:50.230Z,28.90
2018-04-29T16:24:18.517Z,29.10
2018-04-29T16:26:46.803Z,29.60
2018-04-29T16:29:15.097Z,28.90
2018-04-29T16:31:43.331Z,29.00
2018-04-29T16:34:11.598Z,28.80
2018-04-29T16:36:39.841Z,31.00
2018-04-29T16:39:08.867Z,31.20
2018-04-29T16:41:37.871Z,31.50
2018-04-29T16:44:06.132Z,31.30
2018-04-29T16:46:35.151Z,31.20
2018-04-29T16:49:03.386Z,31.00
2018-04-29T16:51:32.410Z,31.30
2018-04-29T16:54:00.688Z,30.60
2018-04-29T16:56:28.924Z,31.40
2018-04-29T16:58:57.922Z,29.70
2018-04-29T17:01:26.942Z,29.90
2018-04-29T17:03:55.195Z,29.80
2018-04-29T17:06:24.208Z,30.00
2018-04-29T17:08:52.497Z,30.00
2018-04-29T17:11:20.966Z,29.90
2018-04-29T17:13:49.193Z,29.70
2018-04-29T17:16:17.457Z,29.60
2018-04-29T17:18:45.746Z,29.90
2018-04-29T17:21:14.788Z,29.60
2018-04-29T17:23:43.055Z,29.60
2018-04-29T17:26:12.177Z,29.80
2018-04-29T17:28:40.470Z,29.80
2018-04-29T17:31:08.772Z,30.10
2018-04-29T17:33:38.568Z,29.90
2018-04-29T17:36:06.855Z,29.90
2018-04-29T17:38:36.787Z,30.30
2018-04-29T17:41:06.573Z,30.60
2018-04-29T17:43:34.857Z,31.10
2018-04-29T17:46:03.112Z,31.00
2018-04-29T17:48:31.411Z,31.40
2018-04-29T17:50:59.681Z,31.20
2018-04-29T17:53:28.715Z,31.80
2018-04-29T17:55:57.027Z,31.70
2018-04-29T17:58:25.351Z,31.80
2018-04-29T18:00:55.135Z,32.00
2018-04-29T18:03:23.442Z,32.00
2018-04-29T18:05:53.145Z,32.70
2018-04-29T18:08:22.205Z,32.70
2018-04-29T18:10:50.473Z,32.70
2018-04-29T18:13:18.771Z,33.90
2018-04-29T18:15:47.032Z,32.80
2018-04-29T18:18:15.326Z,32.90
2018-04-29T18:20:43.697Z,33.00
2018-04-29T18:23:11.982Z,32.70
2018-04-29T18:25:40.273Z,32.90
2018-04-29T18:28:09.299Z,33.40
2018-04-29T18:30:37.647Z,33.30
2018-04-29T18:33:06.710Z,32.70
2018-04-29T18:35:34.990Z,33.10
2018-04-29T18:38:03.264Z,33.80
2018-04-29T18:40:31.548Z,33.40
2018-04-29T18:42:59.861Z,33.40
2018-04-29T18:45:28.415Z,33.90
2018-04-29T18:47:57.444Z,33.90
2018-04-29T18:50:26.568Z,34.30
2018-04-29T18:52:55.614Z,34.20
2018-04-29T18:55:24.651Z,33.90
2018-04-29T18:57:52.932Z,33.80
2018-04-29T19:00:21.427Z,34.10
2018-04-29T19:02:49.744Z,34.10
2018-04-29T19:05:18.857Z,34.70
2018-04-29T19:07:47.894Z,35.00
2018-04-29T19:10:16.182Z,34.90
2018-04-29T19:12:44.550Z,34.70
2018-04-29T19:15:12.798Z,35.00
2018-04-29T19:17:41.146Z,35.30
2018-04-29T19:20:10.163Z,35.40
2018-04-29T19:22:38.406Z,35.30
2018-04-29T19:25:07.430Z,35.00
2018-04-29T19:27:35.670Z,35.00
2018-04-29T19:30:04.682Z,34.80
2018-04-29T19:32:33.698Z,35.10
2018-04-29T19:35:01.973Z,35.00
2018-04-29T19:37:30.979Z,35.10
2018-04-29T19:39:59.218Z,35.00
2018-04-29T19:42:28.222Z,35.20
2018-04-29T19:44:57.226Z,35.60
2018-04-29T19:47:25.485Z,35.50
2018-04-29T19:49:54.486Z,35.40
2018-04-29T19:52:23.482Z,35.50
2018-04-29T19:54:51.741Z,35.50
2018-04-29T19:57:20.889Z,35.60
2018-04-29T19:59:49.225Z,35.50
2018-04-29T20:02:18.299Z,35.80
2018-04-29T20:04:48.054Z,35.40
2018-04-29T20:07:16.297Z,35.40
2018-04-29T20:09:45.313Z,35.70
2018-04-29T20:12:13.555Z,35.70
2018-04-29T20:14:42.810Z,36.00
2018-04-29T20:17:11.043Z,35.90
2018-04-29T20:19:40.071Z,35.70
2018-04-29T20:22:08.386Z,35.70
2018-04-29T20:24:36.677Z,35.90
2018-04-29T20:27:05.728Z,35.90
2018-04-29T20:29:34.024Z,35.90
2018-04-29T20:32:02.333Z,36.50
2018-04-29T20:34:30.585Z,36.10
2018-04-29T20:36:59.807Z,36.50
2018-04-29T20:39:28.823Z,36.80
2018-04-29T20:41:57.078Z,36.70
2018-04-29T20:44:26.152Z,37.10
2018-04-29T20:46:54.417Z,37.00
2018-04-29T20:49:22.729Z,37.00
2018-04-29T20:51:51.043Z,37.00
2018-04-29T20:54:19.341Z,37.10
2018-04-29T20:56:49.152Z,36.90
2018-04-29T20:59:18.959Z,37.30
2018-04-29T21:01:48.044Z,37.30
2018-04-29T21:04:16.331Z,37.30
2018-04-29T21:06:44.658Z,37.20
2018-04-29T21:09:12.962Z,37.70
2018-04-29T21:11:41.262Z,38.00
2018-04-29T21:14:09.795Z,37.70
2018-04-29T21:16:38.041Z,37.40
2018-04-29T21:19:07.815Z,37.80
2018-04-29T21:21:36.097Z,37.90
2018-04-29T21:24:04.389Z,38.00
2018-04-29T21:26:32.753Z,37.90
2018-04-29T21:29:01.042Z,38.20
2018-04-29T21:31:29.322Z,38.40
2018-04-29T21:33:57.599Z,38.20
2018-04-29T21:36:25.908Z,38.00
2018-04-29T21:38:54.209Z,37.90
2018-04-29T21:41:22.509Z,38.10
2018-04-29T21:43:50.804Z,37.90
2018-04-29T21:46:19.277Z,38.00
2018-04-29T21:48:47.570Z,38.10
2018-04-29T21:51:16.629Z,38.40
2018-04-29T21:53:44.925Z,38.40
2018-04-29T21:56:13.261Z,38.50
2018-04-29T21:58:42.273Z,38.70
2018-04-29T22:01:10.555Z,38.60
2018-04-29T22:03:38.851Z,38.60
2018-04-29T22:06:08.171Z,38.60
2018-04-29T22:08:37.222Z,38.80
2018-04-29T22:11:05.601Z,38.80
2018-04-29T22:13:34.637Z,38.70
2018-04-29T22:16:02.938Z,38.70
2018-04-29T22:18:31.995Z,38.80
2018-04-29T22:21:00.277Z,38.80
2018-04-29T22:23:28.554Z,38.70
2018-04-29T22:25:56.863Z,38.60
2018-04-29T22:28:25.147Z,38.70
2018-04-29T22:30:53.469Z,38.90
2018-04-29T22:33:22.823Z,38.70
2018-04-29T22:35:51.138Z,38.70
2018-04-29T22:38:19.429Z,38.60
2018-04-29T22:40:47.708Z,39.20
2018-04-29T22:43:16.004Z,39.30
2018-04-29T22:45:45.072Z,39.30
2018-04-29T22:48:13.346Z,39.30
2018-04-29T22:50:41.623Z,39.10
2018-04-29T22:53:09.916Z,39.50
2018-04-29T22:55:39.003Z,39.50
2018-04-29T22:58:07.256Z,39.50
2018-04-29T23:00:35.561Z,39.20
2018-04-29T23:03:03.800Z,39.30
2018-04-29T23:05:32.098Z,39.30
2018-04-29T23:08:00.374Z,39.80
2018-04-29T23:10:28.650Z,39.40
2018-04-29T23:12:56.940Z,39.90
2018-04-29T23:15:25.225Z,39.40
2018-04-29T23:17:55.015Z,39.50
2018-04-29T23:20:23.316Z,39.50
2018-04-29T23:22:52.400Z,39.90
2018-04-29T23:25:20.738Z,39.40
2018-04-29T23:27:49.159Z,39.80
2018-04-29T23:30:18.247Z,39.30
2018-04-29T23:32:46.514Z,39.30
2018-04-29T23:35:14.800Z,39.50
2018-04-29T23:37:44.595Z,39.90
2018-04-29T23:40:12.887Z,39.80
2018-04-29T23:42:41.166Z,40.30
2018-04-29T23:45:09.431Z,40.70
2018-04-29T23:47:37.790Z,41.00
2018-04-29T23:50:05.984Z,40.40
2018-04-29T23:52:34.264Z,40.60
2018-04-29T23:55:02.553Z,41.40
2018-04-29T23:57:31.730Z,41.20
